sensor_id;sensor_type;location;lat;lon;timestamp;temperature;humidity
32536;DHT22;18974;50.838;4.636;2022-08-19T00:01:51;19.30;99.90
32536;DHT22;18974;50.838;4.636;2022-08-19T00:04:20;19.40;99.90
32536;DHT22;18974;50.838;4.636;2022-08-19T00:06:46;19.50;99.90
32536;DHT22;18974;50.838;4.636;2022-08-19T00:09:14;19.40;99.90
32536;DHT22;18974;50.838;4.636;2022-08-19T00:11:41;19.40;99.90
32536;DHT22;18974;50.838;4.636;2022-08-19T00:14:09;19.30;99.90
32536;DHT22;18974;50.838;4.636;2022-08-19T00:16:36;19.20;99.90
32536;DHT22;18974;50.838;4.636;2022-08-19T00:19:03;19.20;99.90
32536;DHT22;18974;50.838;4.636;2022-08-19T00:21:29;19.10;99.90
32536;DHT22;18974;50.838;4.636;2022-08-19T00:23:56;19.10;99.90
32536;DHT22;18974;50.838;4.636;2022-08-19T00:26:27;19.10;99.90
32536;DHT22;18974;50.838;4.636;2022-08-19T00:28:53;19.10;99.90
32536;DHT22;18974;50.838;4.636;2022-08-19T00:31:19;19.00;99.90
32536;DHT22;18974;50.838;4.636;2022-08-19T00:33:44;19.00;99.90
32536;DHT22;18974;50.838;4.636;2022-08-19T00:36:11;18.90;99.90
32536;DHT22;18974;50.838;4.636;2022-08-19T00:38:38;18.90;99.90
32536;DHT22;18974;50.838;4.636;2022-08-19T00:41:10;18.90;99.90
32536;DHT22;18974;50.838;4.636;2022-08-19T00:43:35;19.00;99.90
32536;DHT22;18974;50.838;4.636;2022-08-19T00:46:01;18.90;99.90
32536;DHT22;18974;50.838;4.636;2022-08-19T00:48:33;18.90;99.90
32536;DHT22;18974;50.838;4.636;2022-08-19T00:50:59;18.90;99.90
32536;DHT22;18974;50.838;4.636;2022-08-19T00:53:29;18.90;99.90
32536;DHT22;18974;50.838;4.636;2022-08-19T00:55:59;18.90;99.90
32536;DHT22;18974;50.838;4.636;2022-08-19T00:58:30;18.90;99.90
32536;DHT22;18974;50.838;4.636;2022-08-19T01:00:56;18.90;99.90
32536;DHT22;18974;50.838;4.636;2022-08-19T01:03:22;18.90;99.90
32536;DHT22;18974;50.838;4.636;2022-08-19T01:05:49;19.00;99.90
32536;DHT22;18974;50.838;4.636;2022-08-19T01:08:18;19.00;99.90
32536;DHT22;18974;50.838;4.636;2022-08-19T01:10:53;18.90;99.90
32536;DHT22;18974;50.838;4.636;2022-08-19T01:13:23;19.00;99.90
32536;DHT22;18974;50.838;4.636;2022-08-19T01:15:57;18.90;99.90
32536;DHT22;18974;50.838;4.636;2022-08-19T01:18:25;18.90;99.90
32536;DHT22;18974;50.838;4.636;2022-08-19T01:20:54;18.90;99.90
32536;DHT22;18974;50.838;4.636;2022-08-19T01:23:21;18.90;99.90
32536;DHT22;18974;50.838;4.636;2022-08-19T01:26:07;18.90;99.90
32536;DHT22;18974;50.838;4.636;2022-08-19T01:28:33;18.80;99.90
32536;DHT22;18974;50.838;4.636;2022-08-19T01:30:58;18.80;99.90
32536;DHT22;18974;50.838;4.636;2022-08-19T01:33:24;18.80;99.90
32536;DHT22;18974;50.838;4.636;2022-08-19T01:35:50;18.80;99.90
32536;DHT22;18974;50.838;4.636;2022-08-19T01:38:26;18.90;99.90
32536;DHT22;18974;50.838;4.636;2022-08-19T01:40:57;18.90;99.90
32536;DHT22;18974;50.838;4.636;2022-08-19T01:43:23;18.80;99.90
32536;DHT22;18974;50.838;4.636;2022-08-19T01:45:49;18.80;99.90
32536;DHT22;18974;50.838;4.636;2022-08-19T01:48:16;18.90;99.90
32536;DHT22;18974;50.838;4.636;2022-08-19T01:50:42;18.80;99.90
32536;DHT22;18974;50.838;4.636;2022-08-19T01:53:10;18.70;99.90
32536;DHT22;18974;50.838;4.636;2022-08-19T01:55:40;18.70;99.90
32536;DHT22;18974;50.838;4.636;2022-08-19T01:58:12;18.80;99.90
32536;DHT22;18974;50.838;4.636;2022-08-19T02:00:40;18.70;99.90
32536;DHT22;18974;50.838;4.636;2022-08-19T02:03:06;18.60;99.90
32536;DHT22;18974;50.838;4.636;2022-08-19T02:05:32;18.60;99.90
32536;DHT22;18974;50.838;4.636;2022-08-19T02:07:57;18.50;99.90
32536;DHT22;18974;50.838;4.636;2022-08-19T02:10:24;18.40;99.90
32536;DHT22;18974;50.838;4.636;2022-08-19T02:12:51;18.30;99.90
32536;DHT22;18974;50.838;4.636;2022-08-19T02:15:18;18.20;99.90
32536;DHT22;18974;50.838;4.636;2022-08-19T02:17:45;18.20;99.90
32536;DHT22;18974;50.838;4.636;2022-08-19T02:20:11;18.30;99.90
32536;DHT22;18974;50.838;4.636;2022-08-19T02:22:38;18.30;99.90
32536;DHT22;18974;50.838;4.636;2022-08-19T02:25:07;18.30;99.90
32536;DHT22;18974;50.838;4.636;2022-08-19T02:27:33;18.30;99.90
32536;DHT22;18974;50.838;4.636;2022-08-19T02:29:59;18.20;99.90
32536;DHT22;18974;50.838;4.636;2022-08-19T02:32:26;18.10;99.90
32536;DHT22;18974;50.838;4.636;2022-08-19T02:34:52;18.10;99.90
32536;DHT22;18974;50.838;4.636;2022-08-19T02:37:18;18.20;99.90
32536;DHT22;18974;50.838;4.636;2022-08-19T02:40:02;18.20;99.90
32536;DHT22;18974;50.838;4.636;2022-08-19T02:42:28;18.30;99.90
32536;DHT22;18974;50.838;4.636;2022-08-19T02:44:55;18.20;99.90
32536;DHT22;18974;50.838;4.636;2022-08-19T02:47:21;18.20;99.90
32536;DHT22;18974;50.838;4.636;2022-08-19T02:49:47;18.10;99.90
32536;DHT22;18974;50.838;4.636;2022-08-19T02:52:15;18.00;99.90
32536;DHT22;18974;50.838;4.636;2022-08-19T02:54:41;18.00;99.90
32536;DHT22;18974;50.838;4.636;2022-08-19T02:57:07;18.00;99.90
32536;DHT22;18974;50.838;4.636;2022-08-19T02:59:33;17.90;99.90
32536;DHT22;18974;50.838;4.636;2022-08-19T03:01:59;17.90;99.90
32536;DHT22;18974;50.838;4.636;2022-08-19T03:04:25;17.90;99.90
32536;DHT22;18974;50.838;4.636;2022-08-19T03:06:51;17.90;99.90
32536;DHT22;18974;50.838;4.636;2022-08-19T03:09:19;17.90;99.90
32536;DHT22;18974;50.838;4.636;2022-08-19T03:11:45;17.90;99.90
32536;DHT22;18974;50.838;4.636;2022-08-19T03:14:11;17.90;99.90
32536;DHT22;18974;50.838;4.636;2022-08-19T03:16:50;17.90;99.90
32536;DHT22;18974;50.838;4.636;2022-08-19T03:19:18;17.80;99.90
32536;DHT22;18974;50.838;4.636;2022-08-19T03:21:44;17.80;99.90
32536;DHT22;18974;50.838;4.636;2022-08-19T03:24:11;17.90;99.90
32536;DHT22;18974;50.838;4.636;2022-08-19T03:26:46;17.70;99.90
32536;DHT22;18974;50.838;4.636;2022-08-19T03:29:12;17.60;99.90
32536;DHT22;18974;50.838;4.636;2022-08-19T03:31:40;17.60;99.90
32536;DHT22;18974;50.838;4.636;2022-08-19T03:34:06;17.70;99.90
32536;DHT22;18974;50.838;4.636;2022-08-19T03:36:32;17.60;99.90
32536;DHT22;18974;50.838;4.636;2022-08-19T03:39:00;17.60;99.90
32536;DHT22;18974;50.838;4.636;2022-08-19T03:41:53;17.60;99.90
32536;DHT22;18974;50.838;4.636;2022-08-19T03:44:20;17.50;99.90
32536;DHT22;18974;50.838;4.636;2022-08-19T03:46:52;17.40;99.90
32536;DHT22;18974;50.838;4.636;2022-08-19T03:49:19;17.50;99.90
32536;DHT22;18974;50.838;4.636;2022-08-19T03:51:47;17.40;99.90
32536;DHT22;18974;50.838;4.636;2022-08-19T03:54:15;17.50;99.90
32536;DHT22;18974;50.838;4.636;2022-08-19T03:56:43;17.50;99.90
32536;DHT22;18974;50.838;4.636;2022-08-19T03:59:16;17.50;99.90
32536;DHT22;18974;50.838;4.636;2022-08-19T04:01:43;17.40;99.90
32536;DHT22;18974;50.838;4.636;2022-08-19T04:04:08;17.40;99.90
32536;DHT22;18974;50.838;4.636;2022-08-19T04:06:36;17.50;99.90
32536;DHT22;18974;50.838;4.636;2022-08-19T04:09:04;17.50;99.90
32536;DHT22;18974;50.838;4.636;2022-08-19T04:11:35;17.50;99.90
32536;DHT22;18974;50.838;4.636;2022-08-19T04:14:01;17.50;99.90
32536;DHT22;18974;50.838;4.636;2022-08-19T04:16:28;17.40;99.90
32536;DHT22;18974;50.838;4.636;2022-08-19T04:18:59;17.40;99.90
32536;DHT22;18974;50.838;4.636;2022-08-19T04:21:27;17.50;99.90
32536;DHT22;18974;50.838;4.636;2022-08-19T04:23:54;17.50;99.90
32536;DHT22;18974;50.838;4.636;2022-08-19T04:26:26;17.60;99.90
32536;DHT22;18974;50.838;4.636;2022-08-19T04:28:53;17.60;99.90
32536;DHT22;18974;50.838;4.636;2022-08-19T04:31:22;17.50;99.90
32536;DHT22;18974;50.838;4.636;2022-08-19T04:33:54;17.40;99.90
32536;DHT22;18974;50.838;4.636;2022-08-19T04:36:24;17.40;99.90
32536;DHT22;18974;50.838;4.636;2022-08-19T04:38:54;17.30;99.90
32536;DHT22;18974;50.838;4.636;2022-08-19T04:41:20;17.40;99.90
32536;DHT22;18974;50.838;4.636;2022-08-19T04:44:04;17.40;99.90
32536;DHT22;18974;50.838;4.636;2022-08-19T04:46:31;17.30;99.90
32536;DHT22;18974;50.838;4.636;2022-08-19T04:49:02;17.20;99.90
32536;DHT22;18974;50.838;4.636;2022-08-19T04:51:28;17.20;99.90
32536;DHT22;18974;50.838;4.636;2022-08-19T04:53:57;17.20;99.90
32536;DHT22;18974;50.838;4.636;2022-08-19T04:56:23;17.30;99.90
32536;DHT22;18974;50.838;4.636;2022-08-19T04:58:53;17.30;99.90
32536;DHT22;18974;50.838;4.636;2022-08-19T05:01:29;17.30;99.90
32536;DHT22;18974;50.838;4.636;2022-08-19T05:03:55;17.20;99.90
32536;DHT22;18974;50.838;4.636;2022-08-19T05:06:22;17.30;99.90
32536;DHT22;18974;50.838;4.636;2022-08-19T05:08:48;17.30;99.90
32536;DHT22;18974;50.838;4.636;2022-08-19T05:11:20;17.30;99.90
32536;DHT22;18974;50.838;4.636;2022-08-19T05:13:48;17.20;99.90
32536;DHT22;18974;50.838;4.636;2022-08-19T05:16:15;17.40;99.90
32536;DHT22;18974;50.838;4.636;2022-08-19T05:18:41;17.50;99.90
32536;DHT22;18974;50.838;4.636;2022-08-19T05:21:26;17.50;99.90
32536;DHT22;18974;50.838;4.636;2022-08-19T05:24:10;17.70;99.90
32536;DHT22;18974;50.838;4.636;2022-08-19T05:26:37;17.80;99.90
32536;DHT22;18974;50.838;4.636;2022-08-19T05:29:03;17.80;99.90
32536;DHT22;18974;50.838;4.636;2022-08-19T05:31:29;17.90;99.90
32536;DHT22;18974;50.838;4.636;2022-08-19T05:33:55;17.90;99.90
32536;DHT22;18974;50.838;4.636;2022-08-19T05:36:26;18.00;99.90
32536;DHT22;18974;50.838;4.636;2022-08-19T05:38:52;18.00;99.90
32536;DHT22;18974;50.838;4.636;2022-08-19T05:41:19;18.00;99.90
32536;DHT22;18974;50.838;4.636;2022-08-19T05:43:45;18.10;99.90
32536;DHT22;18974;50.838;4.636;2022-08-19T05:46:19;18.10;99.90
32536;DHT22;18974;50.838;4.636;2022-08-19T05:48:45;18.20;99.90
32536;DHT22;18974;50.838;4.636;2022-08-19T05:51:11;18.20;99.90
32536;DHT22;18974;50.838;4.636;2022-08-19T05:53:37;18.30;99.90
32536;DHT22;18974;50.838;4.636;2022-08-19T05:56:08;18.50;99.90
32536;DHT22;18974;50.838;4.636;2022-08-19T05:58:36;18.50;99.90
32536;DHT22;18974;50.838;4.636;2022-08-19T06:01:04;18.60;99.90
32536;DHT22;18974;50.838;4.636;2022-08-19T06:03:35;18.60;99.90
32536;DHT22;18974;50.838;4.636;2022-08-19T06:06:03;18.80;99.90
32536;DHT22;18974;50.838;4.636;2022-08-19T06:08:29;18.80;99.90
32536;DHT22;18974;50.838;4.636;2022-08-19T06:10:55;19.00;99.90
32536;DHT22;18974;50.838;4.636;2022-08-19T06:13:21;19.10;99.90
32536;DHT22;18974;50.838;4.636;2022-08-19T06:15:48;19.10;99.90
32536;DHT22;18974;50.838;4.636;2022-08-19T06:18:14;19.20;99.90
32536;DHT22;18974;50.838;4.636;2022-08-19T06:20:41;19.20;99.90
32536;DHT22;18974;50.838;4.636;2022-08-19T06:23:07;19.30;99.90
32536;DHT22;18974;50.838;4.636;2022-08-19T06:25:34;19.40;99.90
32536;DHT22;18974;50.838;4.636;2022-08-19T06:28:01;19.50;99.90
32536;DHT22;18974;50.838;4.636;2022-08-19T06:30:27;19.60;99.90
32536;DHT22;18974;50.838;4.636;2022-08-19T06:32:53;19.70;99.90
32536;DHT22;18974;50.838;4.636;2022-08-19T06:35:19;19.80;99.90
32536;DHT22;18974;50.838;4.636;2022-08-19T06:37:44;20.00;99.90
32536;DHT22;18974;50.838;4.636;2022-08-19T06:40:11;20.00;99.90
32536;DHT22;18974;50.838;4.636;2022-08-19T06:42:38;20.10;99.90
32536;DHT22;18974;50.838;4.636;2022-08-19T06:45:05;20.10;99.90
32536;DHT22;18974;50.838;4.636;2022-08-19T06:47:31;20.10;99.90
32536;DHT22;18974;50.838;4.636;2022-08-19T06:49:59;20.20;99.90
32536;DHT22;18974;50.838;4.636;2022-08-19T06:52:25;20.10;99.90
32536;DHT22;18974;50.838;4.636;2022-08-19T06:54:51;20.20;99.90
32536;DHT22;18974;50.838;4.636;2022-08-19T06:57:16;20.30;99.90
32536;DHT22;18974;50.838;4.636;2022-08-19T06:59:42;20.50;99.90
32536;DHT22;18974;50.838;4.636;2022-08-19T07:02:08;20.80;99.90
32536;DHT22;18974;50.838;4.636;2022-08-19T07:04:35;21.00;99.90
32536;DHT22;18974;50.838;4.636;2022-08-19T07:07:03;21.00;99.90
32536;DHT22;18974;50.838;4.636;2022-08-19T07:09:32;21.10;99.90
32536;DHT22;18974;50.838;4.636;2022-08-19T07:11:58;21.10;99.90
32536;DHT22;18974;50.838;4.636;2022-08-19T07:14:26;21.20;99.90
32536;DHT22;18974;50.838;4.636;2022-08-19T07:16:54;21.30;99.90
32536;DHT22;18974;50.838;4.636;2022-08-19T07:19:22;21.40;99.90
32536;DHT22;18974;50.838;4.636;2022-08-19T07:21:49;21.50;99.90
32536;DHT22;18974;50.838;4.636;2022-08-19T07:24:19;21.60;99.90
32536;DHT22;18974;50.838;4.636;2022-08-19T07:26:45;21.70;99.90
32536;DHT22;18974;50.838;4.636;2022-08-19T07:29:12;21.80;99.90
32536;DHT22;18974;50.838;4.636;2022-08-19T07:31:38;21.90;99.90
32536;DHT22;18974;50.838;4.636;2022-08-19T07:34:05;22.00;99.90
32536;DHT22;18974;50.838;4.636;2022-08-19T07:36:37;22.10;99.90
32536;DHT22;18974;50.838;4.636;2022-08-19T07:39:18;22.20;99.90
32536;DHT22;18974;50.838;4.636;2022-08-19T07:41:44;22.20;99.90
32536;DHT22;18974;50.838;4.636;2022-08-19T07:44:11;22.30;99.90
32536;DHT22;18974;50.838;4.636;2022-08-19T07:46:45;22.30;99.90
32536;DHT22;18974;50.838;4.636;2022-08-19T07:49:12;22.30;99.90
32536;DHT22;18974;50.838;4.636;2022-08-19T07:51:43;22.40;99.90
32536;DHT22;18974;50.838;4.636;2022-08-19T07:54:10;22.60;99.90
32536;DHT22;18974;50.838;4.636;2022-08-19T07:56:37;22.70;99.90
32536;DHT22;18974;50.838;4.636;2022-08-19T07:59:02;22.70;99.90
32536;DHT22;18974;50.838;4.636;2022-08-19T08:01:28;22.80;99.90
32536;DHT22;18974;50.838;4.636;2022-08-19T08:03:56;22.90;99.90
32536;DHT22;18974;50.838;4.636;2022-08-19T08:06:41;22.90;99.90
32536;DHT22;18974;50.838;4.636;2022-08-19T08:09:32;23.00;99.90
32536;DHT22;18974;50.838;4.636;2022-08-19T08:12:05;23.20;99.90
32536;DHT22;18974;50.838;4.636;2022-08-19T08:14:44;23.40;99.90
32536;DHT22;18974;50.838;4.636;2022-08-19T08:17:12;23.50;99.90
32536;DHT22;18974;50.838;4.636;2022-08-19T08:19:39;23.50;99.90
32536;DHT22;18974;50.838;4.636;2022-08-19T08:22:07;23.50;99.90
32536;DHT22;18974;50.838;4.636;2022-08-19T08:24:33;23.50;99.90
32536;DHT22;18974;50.838;4.636;2022-08-19T08:27:01;23.70;99.90
32536;DHT22;18974;50.838;4.636;2022-08-19T08:29:30;23.90;99.90
32536;DHT22;18974;50.838;4.636;2022-08-19T08:31:56;24.10;99.90
32536;DHT22;18974;50.838;4.636;2022-08-19T08:34:23;24.10;99.90
32536;DHT22;18974;50.838;4.636;2022-08-19T08:36:48;24.30;99.90
32536;DHT22;18974;50.838;4.636;2022-08-19T08:39:18;24.60;99.90
32536;DHT22;18974;50.838;4.636;2022-08-19T08:42:24;24.70;99.90
32536;DHT22;18974;50.838;4.636;2022-08-19T08:45:00;24.90;99.90
32536;DHT22;18974;50.838;4.636;2022-08-19T08:47:31;25.20;99.90
32536;DHT22;18974;50.838;4.636;2022-08-19T08:50:06;25.30;99.90
32536;DHT22;18974;50.838;4.636;2022-08-19T08:52:37;25.40;99.90
32536;DHT22;18974;50.838;4.636;2022-08-19T08:55:11;25.30;99.90
32536;DHT22;18974;50.838;4.636;2022-08-19T09:00:23;25.40;99.90
32536;DHT22;18974;50.838;4.636;2022-08-19T09:02:50;25.60;99.90
32536;DHT22;18974;50.838;4.636;2022-08-19T09:05:17;25.60;99.90
32536;DHT22;18974;50.838;4.636;2022-08-19T09:08:00;25.40;99.90
32536;DHT22;18974;50.838;4.636;2022-08-19T09:10:43;25.50;99.90
32536;DHT22;18974;50.838;4.636;2022-08-19T09:13:31;25.70;99.90
32536;DHT22;18974;50.838;4.636;2022-08-19T09:16:07;26.00;99.90
32536;DHT22;18974;50.838;4.636;2022-08-19T09:18:41;26.20;99.90
32536;DHT22;18974;50.838;4.636;2022-08-19T09:21:08;26.40;99.90
32536;DHT22;18974;50.838;4.636;2022-08-19T09:23:37;26.30;99.90
32536;DHT22;18974;50.838;4.636;2022-08-19T09:26:08;26.30;99.90
32536;DHT22;18974;50.838;4.636;2022-08-19T09:28:34;26.20;99.90
32536;DHT22;18974;50.838;4.636;2022-08-19T09:31:00;26.30;99.90
32536;DHT22;18974;50.838;4.636;2022-08-19T09:33:26;26.20;99.90
32536;DHT22;18974;50.838;4.636;2022-08-19T09:36:08;26.10;99.90
32536;DHT22;18974;50.838;4.636;2022-08-19T09:38:35;26.20;99.90
32536;DHT22;18974;50.838;4.636;2022-08-19T09:41:03;26.30;99.90
32536;DHT22;18974;50.838;4.636;2022-08-19T09:43:30;26.50;99.90
32536;DHT22;18974;50.838;4.636;2022-08-19T09:45:56;26.60;99.90
32536;DHT22;18974;50.838;4.636;2022-08-19T09:48:22;26.70;99.90
32536;DHT22;18974;50.838;4.636;2022-08-19T09:50:48;26.80;99.90
32536;DHT22;18974;50.838;4.636;2022-08-19T09:53:15;26.60;99.90
32536;DHT22;18974;50.838;4.636;2022-08-19T09:55:44;26.70;99.90
32536;DHT22;18974;50.838;4.636;2022-08-19T09:58:09;26.70;99.80
32536;DHT22;18974;50.838;4.636;2022-08-19T10:00:37;26.60;99.90
32536;DHT22;18974;50.838;4.636;2022-08-19T10:03:03;26.70;99.90
32536;DHT22;18974;50.838;4.636;2022-08-19T10:05:29;26.40;99.90
32536;DHT22;18974;50.838;4.636;2022-08-19T10:08:14;26.40;99.90
32536;DHT22;18974;50.838;4.636;2022-08-19T10:10:42;26.60;99.90
32536;DHT22;18974;50.838;4.636;2022-08-19T10:13:11;26.60;99.90
32536;DHT22;18974;50.838;4.636;2022-08-19T10:15:37;26.60;99.80
32536;DHT22;18974;50.838;4.636;2022-08-19T10:18:06;26.60;99.90
32536;DHT22;18974;50.838;4.636;2022-08-19T10:20:33;26.70;99.90
32536;DHT22;18974;50.838;4.636;2022-08-19T10:22:59;26.60;99.90
32536;DHT22;18974;50.838;4.636;2022-08-19T10:25:25;26.60;99.70
32536;DHT22;18974;50.838;4.636;2022-08-19T10:27:52;26.60;99.80
32536;DHT22;18974;50.838;4.636;2022-08-19T10:30:18;26.70;99.90
32536;DHT22;18974;50.838;4.636;2022-08-19T10:32:45;26.90;99.30
32536;DHT22;18974;50.838;4.636;2022-08-19T10:35:12;27.00;99.10
32536;DHT22;18974;50.838;4.636;2022-08-19T10:37:38;27.20;99.00
32536;DHT22;18974;50.838;4.636;2022-08-19T10:40:07;27.30;99.00
32536;DHT22;18974;50.838;4.636;2022-08-19T10:42:34;27.30;98.30
32536;DHT22;18974;50.838;4.636;2022-08-19T10:45:00;27.50;98.80
32536;DHT22;18974;50.838;4.636;2022-08-19T10:47:26;27.60;98.50
32536;DHT22;18974;50.838;4.636;2022-08-19T10:49:53;27.60;98.50
32536;DHT22;18974;50.838;4.636;2022-08-19T10:52:42;27.60;98.20
32536;DHT22;18974;50.838;4.636;2022-08-19T10:55:08;27.50;98.40
32536;DHT22;18974;50.838;4.636;2022-08-19T10:57:52;27.60;98.10
32536;DHT22;18974;50.838;4.636;2022-08-19T11:00:19;27.70;97.70
32536;DHT22;18974;50.838;4.636;2022-08-19T11:02:45;27.90;97.60
32536;DHT22;18974;50.838;4.636;2022-08-19T11:05:12;28.00;97.60
32536;DHT22;18974;50.838;4.636;2022-08-19T11:07:41;28.10;97.50
32536;DHT22;18974;50.838;4.636;2022-08-19T11:10:09;28.00;97.70
32536;DHT22;18974;50.838;4.636;2022-08-19T11:12:37;27.70;97.70
32536;DHT22;18974;50.838;4.636;2022-08-19T11:15:08;27.40;98.30
32536;DHT22;18974;50.838;4.636;2022-08-19T11:17:39;27.20;98.40
32536;DHT22;18974;50.838;4.636;2022-08-19T11:20:10;27.00;98.40
32536;DHT22;18974;50.838;4.636;2022-08-19T11:22:37;26.90;99.10
32536;DHT22;18974;50.838;4.636;2022-08-19T11:25:03;26.80;99.60
32536;DHT22;18974;50.838;4.636;2022-08-19T11:27:30;27.00;99.50
32536;DHT22;18974;50.838;4.636;2022-08-19T11:29:55;26.90;99.20
32536;DHT22;18974;50.838;4.636;2022-08-19T11:32:21;26.70;99.70
32536;DHT22;18974;50.838;4.636;2022-08-19T11:34:47;26.70;99.80
32536;DHT22;18974;50.838;4.636;2022-08-19T11:37:12;26.60;99.60
32536;DHT22;18974;50.838;4.636;2022-08-19T11:39:38;26.50;99.90
32536;DHT22;18974;50.838;4.636;2022-08-19T11:42:05;26.60;99.90
32536;DHT22;18974;50.838;4.636;2022-08-19T11:44:51;26.60;99.90
32536;DHT22;18974;50.838;4.636;2022-08-19T11:47:18;26.80;99.90
32536;DHT22;18974;50.838;4.636;2022-08-19T11:49:45;27.00;99.90
32536;DHT22;18974;50.838;4.636;2022-08-19T11:52:11;27.20;99.30
32536;DHT22;18974;50.838;4.636;2022-08-19T11:54:37;26.90;99.20
32536;DHT22;18974;50.838;4.636;2022-08-19T11:57:03;26.60;99.80
32536;DHT22;18974;50.838;4.636;2022-08-19T11:59:29;26.50;99.90
32536;DHT22;18974;50.838;4.636;2022-08-19T12:01:55;26.30;99.90
32536;DHT22;18974;50.838;4.636;2022-08-19T12:04:29;26.10;99.90
32536;DHT22;18974;50.838;4.636;2022-08-19T12:06:55;26.20;99.90
32536;DHT22;18974;50.838;4.636;2022-08-19T12:09:21;26.10;99.90
32536;DHT22;18974;50.838;4.636;2022-08-19T12:11:47;26.20;99.90
32536;DHT22;18974;50.838;4.636;2022-08-19T12:14:13;26.20;99.90
32536;DHT22;18974;50.838;4.636;2022-08-19T12:16:39;26.30;99.90
32536;DHT22;18974;50.838;4.636;2022-08-19T12:19:06;26.60;99.90
32536;DHT22;18974;50.838;4.636;2022-08-19T12:21:34;26.80;99.90
32536;DHT22;18974;50.838;4.636;2022-08-19T12:24:01;27.10;99.90
32536;DHT22;18974;50.838;4.636;2022-08-19T12:26:29;27.20;99.50
32536;DHT22;18974;50.838;4.636;2022-08-19T12:28:56;27.40;99.20
32536;DHT22;18974;50.838;4.636;2022-08-19T12:31:25;27.50;99.10
32536;DHT22;18974;50.838;4.636;2022-08-19T12:33:51;27.70;98.70
32536;DHT22;18974;50.838;4.636;2022-08-19T12:36:17;27.90;98.10
32536;DHT22;18974;50.838;4.636;2022-08-19T12:38:43;27.90;97.80
32536;DHT22;18974;50.838;4.636;2022-08-19T12:41:12;27.80;98.00
32536;DHT22;18974;50.838;4.636;2022-08-19T12:43:38;27.80;98.10
32536;DHT22;18974;50.838;4.636;2022-08-19T12:46:05;27.90;98.10
32536;DHT22;18974;50.838;4.636;2022-08-19T12:48:32;27.90;97.80
32536;DHT22;18974;50.838;4.636;2022-08-19T12:50:58;27.90;97.80
32536;DHT22;18974;50.838;4.636;2022-08-19T12:53:23;28.10;98.00
32536;DHT22;18974;50.838;4.636;2022-08-19T12:55:57;28.40;97.80
32536;DHT22;18974;50.838;4.636;2022-08-19T12:58:23;28.70;97.40
32536;DHT22;18974;50.838;4.636;2022-08-19T13:00:49;28.90;97.00
32536;DHT22;18974;50.838;4.636;2022-08-19T13:03:15;29.10;96.60
32536;DHT22;18974;50.838;4.636;2022-08-19T13:05:41;29.20;96.10
32536;DHT22;18974;50.838;4.636;2022-08-19T13:08:07;29.50;96.10
32536;DHT22;18974;50.838;4.636;2022-08-19T13:10:34;29.60;95.40
32536;DHT22;18974;50.838;4.636;2022-08-19T13:13:03;29.60;95.20
32536;DHT22;18974;50.838;4.636;2022-08-19T13:15:33;29.40;95.50
32536;DHT22;18974;50.838;4.636;2022-08-19T13:17:59;29.60;95.70
32536;DHT22;18974;50.838;4.636;2022-08-19T13:20:26;29.90;95.20
32536;DHT22;18974;50.838;4.636;2022-08-19T13:22:51;30.00;94.70
32536;DHT22;18974;50.838;4.636;2022-08-19T13:25:17;30.00;94.20
32536;DHT22;18974;50.838;4.636;2022-08-19T13:27:46;29.80;94.80
32536;DHT22;18974;50.838;4.636;2022-08-19T13:30:13;29.80;94.30
32536;DHT22;18974;50.838;4.636;2022-08-19T13:32:57;29.60;94.30
32536;DHT22;18974;50.838;4.636;2022-08-19T13:35:56;29.50;94.90
32536;DHT22;18974;50.838;4.636;2022-08-19T13:38:22;29.40;95.00
32536;DHT22;18974;50.838;4.636;2022-08-19T13:40:50;29.30;95.10
32536;DHT22;18974;50.838;4.636;2022-08-19T13:43:17;29.30;94.80
32536;DHT22;18974;50.838;4.636;2022-08-19T13:45:44;29.20;95.10
32536;DHT22;18974;50.838;4.636;2022-08-19T13:48:10;29.10;95.20
32536;DHT22;18974;50.838;4.636;2022-08-19T13:50:41;28.90;95.20
32536;DHT22;18974;50.838;4.636;2022-08-19T13:53:08;29.00;95.60
32536;DHT22;18974;50.838;4.636;2022-08-19T13:55:35;29.00;95.30
32536;DHT22;18974;50.838;4.636;2022-08-19T13:58:01;28.90;94.80
32536;DHT22;18974;50.838;4.636;2022-08-19T14:00:31;29.00;94.90
32536;DHT22;18974;50.838;4.636;2022-08-19T14:02:57;29.10;94.90
32536;DHT22;18974;50.838;4.636;2022-08-19T14:05:25;29.00;95.00
32536;DHT22;18974;50.838;4.636;2022-08-19T14:07:51;29.10;95.00
32536;DHT22;18974;50.838;4.636;2022-08-19T14:10:17;29.10;94.80
32536;DHT22;18974;50.838;4.636;2022-08-19T14:12:44;29.20;94.80
32536;DHT22;18974;50.838;4.636;2022-08-19T14:15:11;29.20;94.50
32536;DHT22;18974;50.838;4.636;2022-08-19T14:17:42;29.10;94.60
32536;DHT22;18974;50.838;4.636;2022-08-19T14:20:09;29.00;94.60
32536;DHT22;18974;50.838;4.636;2022-08-19T14:22:43;29.00;95.20
32536;DHT22;18974;50.838;4.636;2022-08-19T14:25:11;29.00;95.20
32536;DHT22;18974;50.838;4.636;2022-08-19T14:27:38;29.00;95.30
32536;DHT22;18974;50.838;4.636;2022-08-19T14:30:05;28.90;95.40
32536;DHT22;18974;50.838;4.636;2022-08-19T14:32:32;28.60;95.70
32536;DHT22;18974;50.838;4.636;2022-08-19T14:34:58;28.40;95.90
32536;DHT22;18974;50.838;4.636;2022-08-19T14:37:24;28.40;96.00
32536;DHT22;18974;50.838;4.636;2022-08-19T14:39:49;28.30;95.70
32536;DHT22;18974;50.838;4.636;2022-08-19T14:42:15;28.30;96.40
32536;DHT22;18974;50.838;4.636;2022-08-19T14:44:42;28.30;96.00
32536;DHT22;18974;50.838;4.636;2022-08-19T14:47:08;28.10;95.90
32536;DHT22;18974;50.838;4.636;2022-08-19T14:49:34;27.70;96.40
32536;DHT22;18974;50.838;4.636;2022-08-19T14:52:00;27.60;96.90
32536;DHT22;18974;50.838;4.636;2022-08-19T14:54:26;27.50;97.00
32536;DHT22;18974;50.838;4.636;2022-08-19T14:56:52;27.30;97.40
32536;DHT22;18974;50.838;4.636;2022-08-19T14:59:18;27.20;98.10
32536;DHT22;18974;50.838;4.636;2022-08-19T15:01:43;27.20;98.30
32536;DHT22;18974;50.838;4.636;2022-08-19T15:04:09;27.30;98.60
32536;DHT22;18974;50.838;4.636;2022-08-19T15:06:35;27.30;98.50
32536;DHT22;18974;50.838;4.636;2022-08-19T15:09:03;27.30;98.30
32536;DHT22;18974;50.838;4.636;2022-08-19T15:11:29;27.30;98.30
32536;DHT22;18974;50.838;4.636;2022-08-19T15:13:58;27.50;98.30
32536;DHT22;18974;50.838;4.636;2022-08-19T15:16:24;27.70;97.80
32536;DHT22;18974;50.838;4.636;2022-08-19T15:18:52;27.90;97.70
32536;DHT22;18974;50.838;4.636;2022-08-19T15:21:19;27.90;97.50
32536;DHT22;18974;50.838;4.636;2022-08-19T15:23:49;27.70;97.40
32536;DHT22;18974;50.838;4.636;2022-08-19T15:26:16;27.60;97.40
32536;DHT22;18974;50.838;4.636;2022-08-19T15:28:43;27.20;98.60
32536;DHT22;18974;50.838;4.636;2022-08-19T15:31:08;26.70;99.90
32536;DHT22;18974;50.838;4.636;2022-08-19T15:33:35;26.20;99.90
32536;DHT22;18974;50.838;4.636;2022-08-19T15:36:10;25.70;99.90
32536;DHT22;18974;50.838;4.636;2022-08-19T15:38:38;25.40;99.90
32536;DHT22;18974;50.838;4.636;2022-08-19T15:41:04;25.40;99.90